Angora, Nebraska
Current Conditions -  °F | °C
As of 7:53 PM on Friday 31 Oct 2014 (Local Time) from KAIA Reporting Station
Clear Clear  
Wind Chill: 29°   Ceiling: Unl
Heat Index: 39°   Visibility: 10mi
Dew Point: 24°   Wind: 20mph
Humidity: 55%   Direction: 160°SSE
Pressure: 30.13"   Gusts: NA
Location:  41.85°N, 103.13°W
Report Text: KAIA 010153Z AUTO 16017KT 10SM CLR 04/M04 A3013 RMK AO2 PK WND 15027/0108 SLP221 T00391044
Loading
Personal Weather Stations






























Interactive Weather Map
Tropical Storm Tracking
New forecast layout! Learn more

10-Day Weather Forecast

Advertisements
Track Severe Weather on mobile